McGrath, Alaska
Current Conditions -  °F | °C
As of 5:53 AM on Saturday 25 Oct 2014 (Local Time) from PAMC Reporting Station
Scattered Clouds Scattered Clouds  
Wind Chill: 14°   Ceiling: Unl
Heat Index: 22°   Visibility: 10mi
Dew Point: 20°   Wind: 6mph
Humidity: 92%   Direction: 120°ESE
Pressure: 29.95"   Gusts: NA
Location:  62.96°N, 155.6°W
Report Text: PAMC 251353Z 12005KT 10SM FEW018 SCT090 M06/M07 A2995 RMK SLP149 T10561067 VIA AUTODIAL
Loading
Personal Weather Stations






























Interactive Weather Map New forecast layout! Learn more

10-Day Weather Forecast

Advertisements
Track Severe Weather on mobile